Time;durP1;ratioP1;P1;durP2;ratioP2;P2;SDS_P1;SDS_P2;PMS_P1;PMS_P2;Temp;Humidity;BMP_temperature;BMP_pressure;BME280_temperature;BME280_humidity;BME280_pressure;Samples;Min_cycle;Max_cycle;Signal;HPM_P1;HPM_P2
2023/06/17 00:02:17;;;;;;;67.43;39.38;;;12.40;99.90;;;11.20;100.00;101022.97;4975491;28;20035;-77
2023/06/17 00:04:43;;;;;;;67.55;39.60;;;12.40;99.90;;;11.21;100.00;101024.69;4977735;28;20115;-78
2023/06/17 00:07:10;;;;;;;42.90;29.52;;;12.40;99.90;;;11.22;100.00;101017.63;4982396;28;20592;-78
2023/06/17 00:09:36;;;;;;;45.33;30.58;;;12.40;99.90;;;11.28;100.00;101023.47;4964105;28;20039;-77
2023/06/17 00:12:07;;;;;;;63.70;37.85;;;12.40;99.90;;;11.25;100.00;101015.72;4951630;28;20116;-77
2023/06/17 00:14:32;;;;;;;58.10;35.70;;;12.50;99.90;;;11.27;100.00;101021.78;4983822;28;20026;-78
2023/06/17 00:17:00;;;;;;;53.05;35.00;;;12.50;99.90;;;11.36;100.00;101017.88;4976244;28;20233;-78
2023/06/17 00:19:28;;;;;;;62.97;36.58;;;12.60;99.90;;;11.42;100.00;101009.66;4983789;28;20061;-78
2023/06/17 00:21:54;;;;;;;55.22;35.33;;;12.60;99.90;;;11.45;100.00;101012.19;4966352;28;20030;-77
2023/06/17 00:24:20;;;;;;;51.05;34.08;;;12.60;99.90;;;11.49;100.00;101010.28;4974129;28;20716;-78
2023/06/17 00:26:47;;;;;;;50.33;31.92;;;12.60;99.90;;;11.41;100.00;101007.97;4974469;28;20109;-77
2023/06/17 00:29:13;;;;;;;53.15;31.27;;;12.70;99.90;;;11.38;100.00;101005.50;4974706;28;20074;-78
2023/06/17 00:31:39;;;;;;;52.08;29.88;;;12.60;99.90;;;11.36;100.00;101006.47;4982708;28;20042;-78
2023/06/17 00:34:04;;;;;;;54.00;34.10;;;12.60;99.90;;;11.40;100.00;101000.13;4972013;28;20030;-78
2023/06/17 00:36:30;;;;;;;53.55;34.47;;;12.60;99.90;;;11.44;100.00;101004.34;4981955;28;20092;-78
2023/06/17 00:38:57;;;;;;;;;;;12.60;99.90;;;11.44;100.00;101005.19;4968874;28;20487;-78
2023/06/17 00:41:23;;;;;;;43.60;27.50;;;12.60;99.90;;;11.41;100.00;100994.78;4983320;28;19972;-78
2023/06/17 00:43:49;;;;;;;;;;;12.60;99.90;;;11.35;100.00;100986.31;4965661;28;20415;-78
2023/06/17 00:46:41;;;;;;;51.13;30.13;;;12.50;99.90;;;11.27;100.00;100990.16;4990230;28;19914;-78
2023/06/17 00:49:12;;;;;;;48.03;27.42;;;12.50;99.90;;;11.22;100.00;100986.00;4982872;28;20042;-78
2023/06/17 00:51:39;;;;;;;63.78;31.15;;;12.40;99.90;;;11.19;100.00;100992.28;4964832;28;20791;-78
2023/06/17 00:54:07;;;;;;;49.80;29.55;;;12.30;99.90;;;11.09;100.00;100996.25;4976066;28;20105;-77
2023/06/17 00:56:35;;;;;;;64.20;32.58;;;12.30;99.90;;;11.04;100.00;100996.44;4960669;28;20033;-77
2023/06/17 00:59:02;;;;;;;38.80;25.20;;;12.20;99.90;;;11.04;100.00;100999.09;4957034;28;20078;-78
2023/06/17 01:01:29;;;;;;;56.17;35.35;;;12.20;99.90;;;11.04;100.00;100993.81;4971395;28;20038;-78
2023/06/17 01:03:59;;;;;;;63.92;35.05;;;12.20;99.90;;;11.04;100.00;100990.31;4982397;28;20372;-78
2023/06/17 01:07:03;;;;;;;80.90;38.22;;;12.20;99.90;;;11.03;100.00;100991.22;4965964;28;20127;-77
2023/06/17 01:09:34;;;;;;;67.63;33.75;;;12.20;99.90;;;10.97;100.00;100988.88;4971308;28;20039;-78
2023/06/17 01:12:04;;;;;;;70.03;35.63;;;12.10;99.90;;;10.90;100.00;100990.91;4963630;28;20109;-78
2023/06/17 01:14:33;;;;;;;54.28;31.60;;;12.10;99.90;;;10.83;100.00;100998.22;4965659;28;20049;-77
2023/06/17 01:17:01;;;;;;;76.78;35.78;;;12.00;99.90;;;10.79;100.00;100993.16;4964024;28;20030;-78
2023/06/17 01:19:27;;;;;;;90.70;37.13;;;12.00;99.90;;;10.76;100.00;100990.69;4964690;28;20166;-77
2023/06/17 01:21:53;;;;;;;241.70;60.00;;;11.90;99.90;;;10.70;100.00;100986.53;4981481;28;20038;-79
2023/06/17 01:24:29;;;;;;;101.88;44.60;;;11.90;99.90;;;10.59;100.00;100983.50;4984236;28;20038;-78
2023/06/17 01:26:57;;;;;;;158.70;55.55;;;11.80;99.90;;;10.57;100.00;100983.56;4981801;28;20121;-78
2023/06/17 01:29:29;;;;;;;105.35;44.78;;;11.80;99.90;;;10.55;100.00;100984.53;4982754;28;20066;-78
2023/06/17 01:31:57;;;;;;;33.20;24.02;;;11.80;99.90;;;10.60;100.00;100988.66;4981413;28;20038;-78
2023/06/17 01:34:50;;;;;;;72.65;40.60;;;11.80;99.90;;;10.64;100.00;100987.63;4983246;28;20045;-78
2023/06/17 01:37:28;;;;;;;92.95;45.10;;;11.80;99.90;;;10.67;100.00;100981.41;4982353;28;20050;-77
2023/06/17 01:39:57;;;;;;;34.05;25.15;;;11.80;99.90;;;10.68;100.00;100980.47;4981614;28;20049;-78
2023/06/17 01:42:46;;;;;;;58.13;33.38;;;11.90;99.90;;;10.71;100.00;100982.09;4964334;28;20034;-79
2023/06/17 01:45:13;;;;;;;35.55;24.30;;;11.80;99.90;;;10.68;100.00;100980.47;4965482;28;20057;-78
2023/06/17 01:47:39;;;;;;;30.55;22.90;;;11.80;99.90;;;10.67;100.00;100973.50;4975582;28;20040;-78
2023/06/17 01:50:07;;;;;;;179.32;49.65;;;11.80;99.90;;;10.55;100.00;100974.84;4990373;28;20034;-77
2023/06/17 01:52:33;;;;;;;84.43;40.00;;;11.80;99.90;;;10.52;100.00;100975.00;4978914;28;20042;-78
2023/06/17 01:55:02;;;;;;;78.00;39.78;;;11.80;99.90;;;10.56;100.00;100980.97;4980942;28;20031;-78
2023/06/17 01:57:29;;;;;;;76.03;41.30;;;11.80;99.90;;;10.61;100.00;100984.28;4957002;28;20049;-77
2023/06/17 01:59:55;;;;;;;68.80;39.85;;;11.80;99.90;;;10.67;100.00;100982.25;4981122;28;20035;-77
2023/06/17 02:02:22;;;;;;;82.45;43.05;;;11.80;99.90;;;10.71;100.00;100990.00;4969137;28;20462;-78
2023/06/17 02:04:49;;;;;;;152.57;44.05;;;11.90;99.90;;;10.72;100.00;100992.56;4959324;28;20041;-78
2023/06/17 02:07:18;;;;;;;61.17;35.70;;;11.90;99.90;;;10.74;100.00;100989.88;4971310;28;20508;-77
2023/06/17 02:09:45;;;;;;;142.27;52.70;;;11.90;99.90;;;10.73;100.00;100989.00;4958816;28;20125;-77
2023/06/17 02:12:12;;;;;;;105.53;48.10;;;11.90;99.90;;;10.72;100.00;100986.47;4979509;28;20039;-78
2023/06/17 02:14:38;;;;;;;73.93;39.83;;;11.90;99.90;;;10.80;100.00;101000.16;4980154;28;20038;-78
2023/06/17 02:17:04;;;;;;;73.60;40.30;;;12.00;99.90;;;10.88;100.00;100998.03;4979622;28;20045;-78
2023/06/17 02:19:33;;;;;;;67.68;39.22;;;12.00;99.90;;;10.96;100.00;101001.19;4976486;28;20109;-78
2023/06/17 02:21:59;;;;;;;75.00;41.03;;;12.10;99.90;;;10.99;100.00;101002.81;4961711;28;20050;-78
2023/06/17 02:24:25;;;;;;;79.28;39.28;;;12.10;99.90;;;11.01;100.00;100999.19;4972010;28;20030;-77
2023/06/17 02:26:51;;;;;;;86.07;42.45;;;12.20;99.90;;;11.01;100.00;100998.34;4954160;28;20085;-77
2023/06/17 02:29:17;;;;;;;101.03;42.30;;;12.20;99.90;;;11.02;100.00;101002.72;4979884;28;20034;-76
2023/06/17 02:31:43;;;;;;;71.25;38.13;;;12.10;99.90;;;10.94;100.00;100996.91;4963035;28;20053;-78
2023/06/17 02:34:09;;;;;;;58.28;33.75;;;12.10;99.90;;;10.95;100.00;100988.06;4986017;28;20061;-77
2023/06/17 02:36:39;;;;;;;74.22;37.42;;;12.10;99.90;;;11.03;100.00;100991.22;4963325;28;20101;-77
2023/06/17 02:39:06;;;;;;;66.80;37.55;;;12.20;99.90;;;11.09;100.00;100997.09;4979802;28;20046;-77
2023/06/17 02:41:32;;;;;;;66.30;36.20;;;12.20;99.90;;;11.17;100.00;101003.81;4980137;28;20045;-77
2023/06/17 02:43:58;;;;;;;67.15;38.28;;;12.30;99.90;;;11.27;100.00;100994.53;4980875;28;20027;-77
2023/06/17 02:46:27;;;;;;;84.00;40.47;;;12.40;99.90;;;11.31;100.00;100987.38;4978679;28;20030;-77
2023/06/17 02:48:54;;;;;;;67.03;37.15;;;12.40;99.90;;;11.32;100.00;100992.56;4954274;28;20825;-78
2023/06/17 02:51:21;;;;;;;72.00;38.85;;;12.50;99.90;;;11.43;100.00;100984.19;4963105;28;20070;-77
2023/06/17 02:53:47;;;;;;;76.25;39.88;;;12.50;99.90;;;11.49;100.00;100992.66;4977506;28;20514;-77
2023/06/17 02:56:13;;;;;;;71.13;38.47;;;12.60;99.90;;;11.58;100.00;100988.75;4971868;28;20121;-78
2023/06/17 02:58:38;;;;;;;76.20;40.67;;;12.60;99.90;;;11.65;100.00;100995.44;4976792;28;20560;-77
2023/06/17 03:01:09;;;;;;;112.38;48.92;;;12.70;99.90;;;11.72;100.00;100989.88;4961794;28;20057;-77
2023/06/17 03:03:35;;;;;;;67.78;39.38;;;12.80;99.90;;;11.72;100.00;100992.50;4978417;28;20034;-77
2023/06/17 03:06:03;;;;;;;61.92;37.40;;;12.80;99.90;;;11.77;100.00;100986.09;4977565;28;20042;-78
2023/06/17 03:08:34;;;;;;;78.10;41.00;;;12.90;99.90;;;11.90;100.00;100989.88;4974594;28;20468;-77
2023/06/17 03:11:00;;;;;;;80.28;42.15;;;13.00;99.90;;;12.02;100.00;100987.59;4977866;28;20045;-77
2023/06/17 03:13:28;;;;;;;67.15;40.55;;;13.10;99.90;;;12.10;100.00;100999.47;4977466;28;20030;-76
2023/06/17 03:15:55;;;;;;;57.80;35.22;;;13.20;99.90;;;12.22;100.00;100994.53;4977843;28;20053;-77
2023/06/17 03:18:21;;;;;;;68.75;39.72;;;13.30;99.90;;;12.36;100.00;101002.63;4976767;28;20053;-78
2023/06/17 03:20:49;;;;;;;72.15;41.80;;;13.40;99.90;;;12.48;100.00;101004.66;4977218;28;20484;-77
2023/06/17 03:23:15;;;;;;;70.10;40.13;;;13.50;99.90;;;12.58;100.00;101005.03;4976398;28;20034;-77
2023/06/17 03:25:47;;;;;;;66.05;36.53;;;13.60;99.90;;;12.65;100.00;101005.59;4977066;28;20336;-78
2023/06/17 03:28:13;;;;;;;43.67;28.65;;;13.70;99.90;;;12.75;100.00;100998.91;4987428;28;20161;-77
2023/06/17 03:30:42;;;;;;;56.92;35.55;;;13.80;99.90;;;12.82;100.00;101005.56;4969355;28;20082;-77
2023/06/17 03:33:09;;;;;;;65.82;36.65;;;13.80;99.90;;;12.88;100.00;101004.41;4986176;28;20042;-77
2023/06/17 03:35:35;;;;;;;62.72;37.25;;;13.90;99.90;;;12.93;100.00;100995.28;4982804;28;20031;-77
2023/06/17 03:38:02;;;;;;;63.22;37.58;;;14.00;99.90;;;13.02;100.00;101003.69;4997849;28;20402;-77
2023/06/17 03:40:28;;;;;;;60.33;36.35;;;14.00;99.90;;;13.09;100.00;101002.44;4980238;28;20026;-76
2023/06/17 03:42:54;;;;;;;54.20;35.08;;;14.10;99.90;;;13.16;100.00;101003.81;4974109;28;20046;-77
2023/06/17 03:45:21;;;;;;;58.95;35.42;;;14.20;99.90;;;13.25;100.00;101005.97;4969022;28;20038;-77
2023/06/17 03:47:47;;;;;;;62.10;36.40;;;14.20;99.90;;;13.30;100.00;100997.81;4967891;28;20447;-77
2023/06/17 03:50:13;;;;;;;62.65;35.70;;;14.30;99.90;;;13.34;100.00;100996.72;4982007;28;20034;-77
2023/06/17 03:52:39;;;;;;;59.25;35.30;;;14.30;99.90;;;13.36;100.00;101000.13;4997523;28;20034;-77
2023/06/17 03:55:05;;;;;;;49.38;31.77;;;14.40;99.90;;;13.41;100.00;100997.25;4974611;28;20680;-77
2023/06/17 03:57:31;;;;;;;56.20;34.00;;;14.40;99.90;;;13.45;100.00;100998.78;4981626;28;20073;-77
2023/06/17 03:59:57;;;;;;;55.33;34.15;;;14.40;99.90;;;13.51;100.00;101001.09;4979623;28;20403;-77
2023/06/17 04:02:23;;;;;;;58.20;34.10;;;14.50;99.90;;;13.53;100.00;101000.06;4981008;28;20042;-77
2023/06/17 04:04:52;;;;;;;45.92;30.35;;;14.50;99.90;;;13.60;100.00;101000.59;4981577;28;20038;-79
2023/06/17 04:07:21;;;;;;;54.63;32.70;;;14.60;99.90;;;13.66;100.00;101002.91;4981165;28;20043;-76
2023/06/17 04:09:47;;;;;;;50.72;32.88;;;14.70;99.90;;;13.74;100.00;101016.56;4980686;28;20042;-77
2023/06/17 04:12:12;;;;;;;46.97;31.92;;;14.70;99.90;;;13.78;100.00;101006.69;4981182;28;20042;-78
2023/06/17 04:14:38;;;;;;;54.33;31.42;;;14.70;99.90;;;13.82;100.00;101005.56;4981331;28;20077;-77
2023/06/17 04:17:06;;;;;;;55.67;29.27;;;14.80;99.90;;;13.85;100.00;101004.53;4979062;28;20073;-77
2023/06/17 04:19:37;;;;;;;50.30;29.45;;;14.80;99.90;;;13.91;100.00;101001.56;4981529;28;20515;-78
2023/06/17 04:22:07;;;;;;;38.40;26.42;;;14.90;99.90;;;13.97;100.00;101001.19;4982164;28;20031;-77
2023/06/17 04:24:32;;;;;;;40.65;26.80;;;14.90;99.90;;;14.01;100.00;101002.72;4983781;28;20432;-77
2023/06/17 04:27:02;;;;;;;35.03;24.73;;;15.00;99.90;;;14.09;100.00;100999.66;4971807;28;20049;-77
2023/06/17 04:29:29;;;;;;;41.65;26.85;;;15.10;99.90;;;14.18;100.00;101004.41;4975735;28;20148;-77
2023/06/17 04:31:56;;;;;;;37.97;23.65;;;15.10;99.90;;;14.27;100.00;101000.38;4983062;28;20565;-76
2023/06/17 04:34:22;;;;;;;41.28;26.92;;;15.20;99.90;;;14.35;100.00;101001.66;4980729;28;20054;-77
2023/06/17 04:36:49;;;;;;;42.78;25.65;;;15.30;99.90;;;14.47;100.00;101004.53;4981321;28;20065;-78
2023/06/17 04:39:18;;;;;;;31.85;23.10;;;15.40;99.90;;;14.55;100.00;101007.63;4984159;28;20043;-77
2023/06/17 04:41:45;;;;;;;33.40;24.63;;;15.50;99.90;;;14.59;100.00;101006.50;4971194;28;20050;-78
2023/06/17 04:44:13;;;;;;;32.95;23.23;;;15.50;99.90;;;14.70;100.00;101013.81;4977742;28;20038;-77
2023/06/17 04:46:38;;;;;;;27.45;20.17;;;15.60;99.90;;;14.71;100.00;101011.06;4979526;28;20403;-78
2023/06/17 04:49:04;;;;;;;33.38;21.73;;;15.70;99.90;;;14.74;100.00;101012.69;4981065;28;20033;-77
2023/06/17 04:51:30;;;;;;;32.47;20.30;;;15.70;99.90;;;14.80;100.00;101007.03;4978837;28;20043;-78
2023/06/17 04:53:56;;;;;;;;;;;15.70;99.90;;;14.88;100.00;101012.72;4964615;28;20031;-77
2023/06/17 04:56:26;;;;;;;31.60;21.77;;;15.80;99.90;;;14.93;100.00;101010.63;5001681;28;19922;-78
2023/06/17 04:58:52;;;;;;;30.73;20.77;;;15.90;99.90;;;15.04;100.00;101014.44;4980442;28;20380;-78
2023/06/17 05:01:18;;;;;;;29.27;20.17;;;16.00;99.90;;;15.08;100.00;101015.97;4980712;28;20045;-77
2023/06/17 05:03:44;;;;;;;27.33;19.85;;;16.00;99.90;;;15.19;100.00;101018.81;4979491;28;20042;-78
2023/06/17 05:06:10;;;;;;;30.77;21.88;;;16.10;99.90;;;15.30;100.00;101016.34;4978617;28;20023;-77
2023/06/17 05:08:36;;;;;;;23.33;18.52;;;16.20;99.90;;;15.43;100.00;101023.56;4980286;28;20038;-77
2023/06/17 05:11:02;;;;;;;;;;;16.30;99.90;;;15.48;100.00;101022.31;4981639;28;20050;-78
2023/06/17 05:13:27;;;;;;;21.10;15.18;;;16.40;99.90;;;15.52;100.00;101017.66;4964469;28;20337;-78
2023/06/17 05:15:53;;;;;;;24.73;16.75;;;16.40;99.90;;;15.56;100.00;101016.53;4978928;28;20129;-78
2023/06/17 05:18:19;;;;;;;;;;;16.50;99.90;;;15.64;100.00;101013.41;4978560;28;20038;-77
2023/06/17 05:20:45;;;;;;;23.80;14.77;;;16.60;99.90;;;15.70;100.00;101019.16;4981096;28;19921;-77
2023/06/17 05:23:10;;;;;;;;;;;16.50;99.90;;;15.77;100.00;101020.50;4980148;28;20509;-77
2023/06/17 05:25:36;;;;;;;22.17;14.10;;;16.60;99.90;;;15.84;100.00;101015.66;4981237;28;19918;-77
2023/06/17 05:28:05;;;;;;;;;;;16.70;99.90;;;15.90;100.00;101014.41;4972443;28;20495;-77
2023/06/17 05:30:31;;;;;;;21.52;14.52;;;16.80;99.90;;;15.93;100.00;101009.75;5003783;28;19914;-77
2023/06/17 05:32:57;;;;;;;17.63;13.57;;;16.80;99.90;;;15.97;100.00;101010.41;4978127;28;20419;-78
2023/06/17 05:35:22;;;;;;;;;;;16.80;99.90;;;15.99;100.00;101011.16;4982248;28;20053;-77
2023/06/17 05:37:48;;;;;;;17.92;12.43;;;16.90;99.90;;;15.97;100.00;101015.72;4964282;28;20283;-77
2023/06/17 05:40:14;;;;;;;;;;;16.90;99.90;;;16.04;100.00;101024.16;4977274;28;20042;-76
2023/06/17 05:42:40;;;;;;;16.63;12.85;;;16.90;99.90;;;16.05;100.00;101016.09;5002612;28;19918;-77
2023/06/17 05:45:07;;;;;;;17.55;12.55;;;16.90;99.90;;;16.14;100.00;101017.28;4971631;28;20084;-77
2023/06/17 05:47:33;;;;;;;19.65;12.75;;;17.00;99.90;;;16.20;100.00;101022.19;4964318;28;20041;-77
2023/06/17 05:50:01;;;;;;;15.57;10.68;;;17.10;99.90;;;16.32;100.00;101029.34;4978556;28;20035;-77
2023/06/17 05:52:27;;;;;;;16.00;11.80;;;17.20;99.90;;;16.40;100.00;101026.19;4979551;28;20101;-77
2023/06/17 05:54:53;;;;;;;21.77;12.18;;;17.20;99.90;;;16.45;100.00;101031.19;4986758;28;20511;-78
2023/06/17 05:57:19;;;;;;;;;;;17.20;99.90;;;16.49;100.00;101027.38;4971077;28;20517;-77
2023/06/17 05:59:45;;;;;;;16.15;11.07;;;17.30;99.90;;;16.52;100.00;101030.72;5004864;28;19917;-77
2023/06/17 06:02:11;;;;;;;19.00;11.73;;;17.30;99.90;;;16.52;100.00;101028.06;4977618;28;20465;-78
2023/06/17 06:04:36;;;;;;;15.05;12.07;;;17.40;99.90;;;16.55;100.00;101024.31;4979824;28;20053;-77
2023/06/17 06:07:02;;;;;;;20.92;11.57;;;17.50;99.90;;;16.70;100.00;101025.09;4978309;28;20034;-77
2023/06/17 06:09:28;;;;;;;16.98;11.20;;;17.50;99.90;;;16.79;100.00;101027.13;4979450;28;20034;-77
2023/06/17 06:11:54;;;;;;;15.55;12.00;;;17.60;99.90;;;16.84;100.00;101027.69;4977587;28;20070;-77
2023/06/17 06:14:20;;;;;;;;;;;17.60;99.90;;;16.68;100.00;101032.34;4980451;28;20523;-78
2023/06/17 06:16:46;;;;;;;16.02;11.27;;;17.60;99.90;;;16.76;100.00;101037.97;4975485;28;19971;-77
2023/06/17 06:19:12;;;;;;;;;;;17.60;99.90;;;16.90;100.00;101040.56;4969639;28;20057;-78
2023/06/17 06:21:38;;;;;;;15.98;11.82;;;17.80;99.90;;;17.14;100.00;101047.84;4978636;28;19922;-77
2023/06/17 06:24:03;;;;;;;;;;;17.80;99.90;;;17.35;100.00;101051.66;4972166;28;20039;-76
2023/06/17 06:26:29;;;;;;;16.80;11.98;;;18.10;99.90;;;17.56;100.00;101053.78;4979649;28;20492;-77
2023/06/17 06:28:55;;;;;;;;;;;18.10;99.90;;;17.74;100.00;101063.13;4981282;28;20034;-77
2023/06/17 06:31:21;;;;;;;17.33;11.68;;;18.40;99.90;;;17.93;100.00;101054.69;4964631;28;19929;-78
2023/06/17 06:33:47;;;;;;;;;;;17.20;99.90;;;18.09;100.00;101051.75;4981055;28;20042;-77
2023/06/17 06:36:12;;;;;;;14.48;10.63;;;18.70;99.90;;;18.32;100.00;101057.22;4969586;28;19926;-78
2023/06/17 06:38:38;;;;;;;;;;;18.80;99.90;;;18.28;98.71;101058.41;4996946;28;20041;-77
2023/06/17 06:41:04;;;;;;;17.02;10.02;;;19.00;99.90;;;18.54;96.60;101057.31;4981441;28;19924;-77
2023/06/17 06:43:30;;;;;;;13.23;10.30;;;19.30;99.90;;;19.09;94.58;101054.09;4978350;28;20129;-77
2023/06/17 06:45:55;;;;;;;;;;;19.30;99.90;;;19.79;92.06;101059.28;4973084;28;20174;-77
2023/06/17 06:48:24;;;;;;;13.60;9.25;;;20.20;99.90;;;20.44;86.52;101062.03;5002608;28;19933;-78
2023/06/17 06:50:50;;;;;;;12.65;8.63;;;20.80;99.90;;;21.21;82.27;101058.25;4979550;28;20407;-78
2023/06/17 06:53:16;;;;;;;15.35;8.80;;;21.40;99.90;;;21.76;80.36;101066.84;4983155;28;20039;-76
2023/06/17 06:55:42;;;;;;;11.55;7.45;;;21.90;99.90;;;22.31;76.27;101069.97;4988154;28;20037;-79
2023/06/17 06:58:08;;;;;;;;;;;22.00;99.90;;;23.10;72.33;101071.66;4971956;28;20034;-78
2023/06/17 07:00:33;;;;;;;14.40;6.68;;;23.50;99.90;;;24.47;68.82;101081.78;4986521;28;19918;-78
2023/06/17 07:03:02;;;;;;;12.13;6.28;;;24.40;99.90;;;25.12;66.35;101082.34;4980313;28;20034;-78
2023/06/17 07:05:28;;;;;;;8.27;5.68;;;25.30;99.90;;;26.24;62.92;101095.91;4989441;28;20038;-76
2023/06/17 07:07:54;;;;;;;7.43;5.05;;;25.80;99.90;;;26.30;60.20;101093.38;4954081;28;20027;-78
2023/06/17 07:10:20;;;;;;;8.68;5.20;;;26.30;99.90;;;26.31;58.55;101089.69;4978520;28;20109;-78
2023/06/17 07:12:46;;;;;;;9.23;5.18;;;26.60;99.90;;;26.89;57.46;101101.44;4970166;28;20076;-78
2023/06/17 07:15:11;;;;;;;;;;;26.60;99.90;;;27.30;54.12;101105.94;4973677;28;20034;-79
2023/06/17 07:17:37;;;;;;;11.80;4.40;;;27.40;99.90;;;27.51;55.25;101116.22;4983551;28;19918;-78
2023/06/17 07:20:05;;;;;;;7.38;4.65;;;27.30;99.90;;;26.70;56.83;101099.91;4989101;28;20034;-78
2023/06/17 07:22:32;;;;;;;7.90;4.88;;;27.40;99.90;;;26.91;56.34;101109.34;4967112;28;20053;-77
2023/06/17 07:24:58;;;;;;;10.75;4.95;;;26.70;99.90;;;25.73;58.38;101096.72;4963825;28;20058;-78
2023/06/17 07:27:24;;;;;;;6.18;4.80;;;26.10;99.90;;;24.81;58.85;101091.88;4980021;28;20117;-79
2023/06/17 07:29:50;;;;;;;9.57;4.88;;;25.30;99.90;;;24.36;60.61;101085.53;4970729;28;20044;-79
2023/06/17 07:32:16;;;;;;;5.63;3.95;;;25.30;99.90;;;24.94;59.68;101087.75;4977998;28;20053;-78
2023/06/17 07:34:42;;;;;;;5.65;4.20;;;25.60;99.90;;;25.17;58.17;101090.81;4977833;28;20137;-78
2023/06/17 07:37:07;;;;;;;;;;;25.60;99.90;;;25.25;55.41;101092.75;4961647;28;20110;-78
2023/06/17 07:39:33;;;;;;;7.47;4.50;;;25.70;99.90;;;25.57;57.04;101102.00;4987825;28;19921;-78
2023/06/17 07:41:59;;;;;;;5.63;3.90;;;26.20;99.90;;;26.55;56.47;101112.34;4969819;28;20095;-78
2023/06/17 07:44:25;;;;;;;26.75;4.18;;;26.70;99.90;;;26.88;54.37;101123.19;4980442;28;20030;-78
2023/06/17 07:46:51;;;;;;;5.30;4.47;;;26.90;99.90;;;26.71;53.67;101122.34;4997358;28;20032;-78
2023/06/17 07:49:17;;;;;;;11.10;4.00;;;27.40;99.90;;;27.55;53.77;101131.91;4981407;28;20042;-78
2023/06/17 07:51:42;;;;;;;6.55;3.60;;;28.00;99.90;;;28.40;50.86;101142.09;4978644;28;20072;-78
2023/06/17 07:54:08;;;;;;;6.68;3.97;;;28.40;99.80;;;28.24;50.86;101150.31;4985633;28;20121;-78
2023/06/17 07:56:34;;;;;;;7.75;3.95;;;28.30;99.60;;;27.78;51.73;101136.59;4974742;28;20368;-78
2023/06/17 07:59:00;;;;;;;6.43;3.50;;;28.20;97.80;;;27.25;50.81;101132.66;4980806;28;20126;-78
2023/06/17 08:01:26;;;;;;;6.05;3.30;;;27.30;97.70;;;26.40;53.00;101129.19;4970560;28;20503;-78
2023/06/17 08:03:52;;;;;;;6.15;3.63;;;27.30;99.40;;;26.89;52.54;101125.75;4969161;28;20040;-78
2023/06/17 08:06:18;;;;;;;6.30;3.28;;;27.00;98.70;;;26.18;53.15;101124.41;4980444;28;20046;-78
2023/06/17 08:08:45;;;;;;;7.93;2.90;;;26.40;99.90;;;25.29;55.58;101104.91;4962717;28;20038;-79
2023/06/17 08:11:11;;;;;;;9.88;3.15;;;26.30;99.90;;;25.45;55.27;101117.63;4961184;28;20035;-78
2023/06/17 08:13:37;;;;;;;11.93;3.58;;;26.10;99.90;;;25.35;56.00;101115.03;4951822;28;20045;-78
2023/06/17 08:16:03;;;;;;;5.85;3.72;;;25.70;99.90;;;24.92;55.15;101116.72;4976192;28;20034;-78
2023/06/17 08:18:29;;;;;;;9.55;3.50;;;25.40;99.90;;;24.61;56.55;101115.44;4979710;28;20114;-78
2023/06/17 08:20:55;;;;;;;8.82;3.00;;;25.20;99.90;;;24.71;55.59;101113.50;4970880;28;20064;-78
2023/06/17 08:23:21;;;;;;;6.95;3.33;;;24.90;99.90;;;24.42;56.34;101105.63;4990422;28;20034;-78
2023/06/17 08:25:49;;;;;;;7.45;3.05;;;24.60;99.90;;;23.76;57.07;101112.94;4981748;28;20042;-78
2023/06/17 08:28:15;;;;;;;3.97;2.97;;;24.30;99.90;;;23.43;59.09;101101.69;4993761;28;20033;-78
2023/06/17 08:30:41;;;;;;;6.18;3.53;;;24.20;99.90;;;23.46;59.01;101104.09;4968877;28;20114;-78
2023/06/17 08:33:14;;;;;;;4.90;3.45;;;24.10;99.90;;;23.47;60.09;101100.41;4974464;28;20027;-78
2023/06/17 08:35:40;;;;;;;6.20;3.50;;;24.10;99.90;;;23.52;59.45;101102.63;4982493;28;20395;-78
2023/06/17 08:38:05;;;;;;;5.63;3.67;;;24.20;99.90;;;23.71;59.93;101104.41;4965877;28;20129;-78
2023/06/17 08:40:32;;;;;;;4.50;3.20;;;24.20;99.90;;;23.73;59.63;101102.44;4966474;28;20048;-79
2023/06/17 08:43:03;;;;;;;5.85;3.10;;;24.00;99.90;;;23.33;59.27;101107.09;4973982;28;20058;-76
2023/06/17 08:45:32;;;;;;;6.43;3.30;;;23.90;99.90;;;23.24;60.22;101104.41;4981217;28;20458;-78
2023/06/17 08:47:59;;;;;;;5.28;3.35;;;23.50;99.90;;;22.65;61.46;101099.06;4982693;28;20554;-77
2023/06/17 08:50:26;;;;;;;9.63;3.70;;;23.60;99.90;;;22.98;60.40;101104.16;4971602;28;20038;-77
2023/06/17 08:52:52;;;;;;;4.07;3.20;;;23.70;99.90;;;23.46;59.13;101114.00;4981397;28;20050;-78
2023/06/17 08:55:21;;;;;;;5.93;3.22;;;23.70;99.90;;;23.17;59.44;101112.22;4955336;28;20050;-78
2023/06/17 09:01:16;;;;;;;6.57;3.08;;;;;;;23.43;60.39;101108.91;4858852;28;20177;-81
2023/06/17 09:07:27;;;;;;;4.20;2.83;;;23.60;99.90;;;22.83;58.01;101101.03;4909610;29;20037;-81
2023/06/17 09:16:47;;;;;;;6.22;3.30;;;;;;;23.23;60.83;101111.63;4792683;29;20041;-81
2023/06/17 09:23:24;;;;;;;4.97;2.88;;;24.30;99.90;;;23.88;58.27;101117.09;4817216;29;20043;-80
2023/06/17 09:26:50;;;;;;;;;;;;;;;;;;;;;
2023/06/17 09:33:08;;;;;;;;;;;;;;;;;;;;;
2023/06/17 09:36:11;;;;;;;;;;;;;;;;;;;;;
2023/06/17 09:38:57;;;;;;;6.93;3.70;;;24.40;99.90;;;24.08;58.86;101111.63;4987106;28;21737;-80
2023/06/17 09:45:38;;;;;;;7.43;3.47;;;24.80;99.90;;;24.43;57.96;101102.78;4981969;28;20045;-80
2023/06/17 09:48:42;;;;;;;;;;;;;;;;;;;;;
2023/06/17 09:51:27;;;;;;;5.15;3.35;;;;;;;24.51;57.24;101107.41;4924771;28;20042;-81
2023/06/17 09:54:09;;;;;;;7.75;3.15;;;;;;;24.44;57.26;101104.47;4954506;28;20043;-80
2023/06/17 09:57:21;;;;;;;5.80;3.17;;;25.10;99.90;;;24.39;57.52;101100.56;4922868;28;20029;-81
2023/06/17 09:59:50;;;;;;;7.28;3.42;;;25.10;99.90;;;24.18;57.12;101104.34;4898618;28;20536;-75
2023/06/17 10:02:19;;;;;;;7.30;3.10;;;25.00;99.90;;;24.09;56.15;101098.03;4936170;28;20125;-75
2023/06/17 10:04:48;;;;;;;7.10;3.50;;;25.00;99.90;;;24.24;56.07;101102.91;4972470;28;20443;-76
2023/06/17 10:07:17;;;;;;;9.82;3.40;;;24.70;99.90;;;23.83;57.73;101091.69;4954097;28;20351;-74
2023/06/17 10:09:46;;;;;;;6.65;3.20;;;24.80;99.90;;;24.31;57.74;101091.38;4959533;28;20145;-76
2023/06/17 10:12:24;;;;;;;7.03;2.85;;;24.90;99.90;;;24.51;56.05;101102.91;4973792;28;20053;-75
2023/06/17 10:14:53;;;;;;;9.50;3.40;;;25.20;99.90;;;24.95;56.91;101104.78;4951922;28;20041;-75
2023/06/17 10:17:21;;;;;;;5.78;3.45;;;25.40;99.90;;;24.97;54.73;101105.50;4973027;28;20573;-76
2023/06/17 10:19:51;;;;;;;7.35;3.28;;;25.70;99.90;;;25.36;54.44;101105.13;4970900;28;20419;-75
2023/06/17 10:22:25;;;;;;;6.65;3.90;;;25.80;99.90;;;25.40;54.46;101108.31;4962806;28;20586;-75
2023/06/17 10:24:51;;;;;;;4.95;3.47;;;25.90;99.90;;;25.55;54.42;101110.28;4954862;28;20454;-75
2023/06/17 10:27:22;;;;;;;5.32;3.55;;;26.20;99.90;;;25.76;53.34;101117.13;4967703;28;20038;-75
2023/06/17 10:29:50;;;;;;;8.50;3.70;;;25.90;98.50;;;25.27;53.29;101117.69;4950426;28;20035;-75
2023/06/17 10:32:24;;;;;;;5.72;3.20;;;25.90;99.70;;;25.22;52.65;101114.59;4935815;28;20126;-74
2023/06/17 10:35:13;;;;;;;8.18;4.07;;;25.90;99.80;;;25.15;52.73;101114.38;4969113;28;20038;-76
2023/06/17 10:37:50;;;;;;;5.28;3.13;;;26.00;99.90;;;25.65;53.46;101120.09;4934179;28;20062;-76
2023/06/17 10:40:26;;;;;;;9.43;3.35;;;26.20;98.80;;;25.84;51.82;101124.41;4969154;28;20034;-75
2023/06/17 10:43:06;;;;;;;12.48;3.40;;;25.90;97.60;;;25.06;53.65;101109.94;4961705;28;20034;-75